Time;durP1;ratioP1;P1;durP2;ratioP2;P2;SDS_P1;SDS_P2;PMS_P1;PMS_P2;Temp;Humidity;BMP_temperature;BMP_pressure;BME280_temperature;BME280_humidity;BME280_pressure;Samples;Min_cycle;Max_cycle;Signal;HPM_P1;HPM_P2
2023/01/28 00:01:36;;;;;;;0.60;0.50;;;21.00;61.10;;;;;;6213159;23;20059;-70
2023/01/28 00:04:02;;;;;;;0.70;0.50;;;21.00;61.10;;;;;;6214641;23;20433;-70
2023/01/28 00:06:28;;;;;;;0.38;0.30;;;20.90;61.10;;;;;;6214293;23;19996;-70
2023/01/28 00:08:54;;;;;;;0.55;0.40;;;20.90;61.30;;;;;;6212936;23;20000;-69
2023/01/28 00:11:21;;;;;;;0.52;0.40;;;20.80;61.40;;;;;;6213275;23;20326;-69
2023/01/28 00:13:51;;;;;;;1.52;0.80;;;20.70;61.60;;;;;;6212343;23;20004;-69
2023/01/28 00:16:17;;;;;;;6.47;0.60;;;20.60;62.00;;;;;;6209175;23;20005;-70
2023/01/28 00:18:42;;;;;;;1.25;0.40;;;20.60;62.30;;;;;;6210210;23;20090;-70
2023/01/28 00:21:12;;;;;;;1.00;0.52;;;20.50;62.50;;;;;;6210697;23;20010;-70
2023/01/28 00:23:39;;;;;;;0.68;0.45;;;20.40;62.80;;;;;;6211418;23;20433;-70
2023/01/28 00:26:06;;;;;;;0.60;0.50;;;20.40;63.10;;;;;;6185474;23;20088;-70
2023/01/28 00:28:32;;;;;;;1.38;0.55;;;20.30;63.30;;;;;;6162216;23;20403;-70
2023/01/28 00:30:58;;;;;;;1.27;0.50;;;20.20;63.50;;;;;;6214088;23;20035;-70
2023/01/28 00:33:23;;;;;;;3.33;0.70;;;20.10;63.60;;;;;;6213281;23;20083;-70
2023/01/28 00:35:59;;;;;;;0.60;0.50;;;20.10;64.00;;;;;;6212023;23;20008;-70
2023/01/28 00:38:25;;;;;;;0.50;0.50;;;20.00;64.10;;;;;;6188195;23;20405;-70
2023/01/28 00:40:51;;;;;;;1.95;0.40;;;19.90;64.30;;;;;;6214615;23;20322;-70
2023/01/28 00:43:17;;;;;;;0.88;0.50;;;19.90;64.50;;;;;;6212821;23;20003;-70
2023/01/28 00:45:42;;;;;;;0.50;0.32;;;19.80;64.70;;;;;;6188189;23;19997;-70
2023/01/28 00:48:08;;;;;;;1.48;0.60;;;19.80;64.80;;;;;;6214438;23;20050;-70
2023/01/28 00:50:34;;;;;;;0.95;0.50;;;19.70;65.00;;;;;;6212941;23;20372;-70
2023/01/28 00:53:00;;;;;;;0.47;0.40;;;19.60;65.10;;;;;;6214764;23;19997;-70
2023/01/28 00:55:27;;;;;;;0.98;0.43;;;19.50;65.30;;;;;;6212539;23;19996;-69
2023/01/28 00:57:53;;;;;;;0.35;0.35;;;19.50;65.40;;;;;;6215225;23;20000;-69
2023/01/28 01:00:19;;;;;;;0.47;0.45;;;19.50;65.60;;;;;;6215128;23;20023;-69
2023/01/28 01:02:45;;;;;;;0.40;0.40;;;19.40;65.70;;;;;;6213720;23;20019;-70
2023/01/28 01:05:11;;;;;;;0.85;0.50;;;19.30;65.90;;;;;;6214819;23;20361;-69
2023/01/28 01:07:42;;;;;;;0.35;0.30;;;19.30;65.90;;;;;;6213697;23;20437;-70
2023/01/28 01:10:09;;;;;;;1.40;0.50;;;19.20;66.10;;;;;;6215041;23;20437;-69
2023/01/28 01:12:35;;;;;;;0.93;0.45;;;19.10;66.20;;;;;;6188466;23;20417;-69
2023/01/28 01:15:01;;;;;;;0.50;0.40;;;19.10;66.40;;;;;;6215019;23;20047;-70
2023/01/28 01:17:30;;;;;;;0.40;0.40;;;19.00;66.40;;;;;;6214766;23;20413;-70
2023/01/28 01:19:55;;;;;;;0.82;0.43;;;19.00;66.70;;;;;;6188671;23;20005;-70
2023/01/28 01:22:21;;;;;;;0.43;0.40;;;19.00;66.80;;;;;;6214923;23;20043;-70
2023/01/28 01:24:47;;;;;;;0.47;0.47;;;18.90;66.90;;;;;;6215116;23;20347;-69
2023/01/28 01:27:12;;;;;;;1.05;0.43;;;18.80;67.00;;;;;;6163608;23;20020;-70
2023/01/28 01:29:38;;;;;;;0.43;0.30;;;18.80;67.20;;;;;;6216555;23;19997;-70
2023/01/28 01:32:04;;;;;;;0.50;0.47;;;18.70;67.20;;;;;;6215071;23;20338;-70
2023/01/28 01:34:30;;;;;;;0.82;0.50;;;18.70;67.40;;;;;;6215685;23;20004;-69
2023/01/28 01:36:55;;;;;;;0.57;0.45;;;18.60;67.40;;;;;;6217208;23;20001;-70
2023/01/28 01:39:21;;;;;;;0.50;0.50;;;18.60;67.50;;;;;;6215568;23;20005;-70
2023/01/28 01:41:46;;;;;;;0.70;0.40;;;18.50;67.60;;;;;;6215365;23;20039;-69
2023/01/28 01:44:50;;;;;;;0.50;0.50;;;18.50;67.70;;;;;;6216982;23;20047;-70
2023/01/28 01:47:15;;;;;;;0.75;0.52;;;18.40;67.80;;;;;;6216730;23;20485;-70
2023/01/28 01:49:41;;;;;;;1.08;0.40;;;18.40;67.90;;;;;;6190471;23;20001;-70
2023/01/28 01:52:09;;;;;;;0.65;0.47;;;18.40;67.90;;;;;;6190375;23;20004;-70
2023/01/28 01:54:35;;;;;;;0.30;0.30;;;18.30;68.00;;;;;;6190891;23;20035;-70
2023/01/28 01:57:01;;;;;;;0.40;0.40;;;18.30;68.00;;;;;;6215253;23;20001;-70
2023/01/28 01:59:31;;;;;;;0.40;0.40;;;18.20;68.00;;;;;;6190413;23;20000;-70
2023/01/28 02:01:57;;;;;;;0.63;0.43;;;18.20;68.10;;;;;;6190083;23;20111;-70
2023/01/28 02:04:31;;;;;;;0.52;0.50;;;18.10;68.10;;;;;;6190269;23;20029;-70
2023/01/28 02:06:57;;;;;;;1.00;0.57;;;18.10;68.20;;;;;;6215437;23;20010;-70
2023/01/28 02:09:28;;;;;;;1.52;0.57;;;18.10;67.90;;;;;;6190042;23;20007;-70
2023/01/28 02:12:12;;;;;;;0.43;0.40;;;18.10;68.10;;;;;;6214920;23;20464;-70
2023/01/28 02:14:44;;;;;;;0.30;0.30;;;18.00;68.20;;;;;;6190610;23;20001;-70
2023/01/28 02:17:09;;;;;;;0.60;0.40;;;18.00;68.20;;;;;;6215126;23;20088;-70
2023/01/28 02:19:51;;;;;;;1.23;0.45;;;18.00;68.30;;;;;;6214984;23;20040;-70
2023/01/28 02:22:25;;;;;;;0.40;0.35;;;17.90;68.40;;;;;;6192522;23;20079;-70
2023/01/28 02:25:07;;;;;;;0.32;0.32;;;17.90;68.50;;;;;;6216589;23;20036;-70
2023/01/28 02:28:01;;;;;;;0.65;0.43;;;17.80;68.50;;;;;;6193027;23;20440;-70
2023/01/28 02:30:33;;;;;;;0.40;0.40;;;17.80;68.60;;;;;;6190909;23;20004;-70
2023/01/28 02:33:02;;;;;;;0.55;0.50;;;17.80;68.60;;;;;;6190434;23;20084;-70
2023/01/28 02:35:34;;;;;;;0.47;0.38;;;17.80;68.70;;;;;;6190541;23;20028;-70
2023/01/28 02:38:05;;;;;;;0.50;0.50;;;17.70;68.70;;;;;;6190683;23;20058;-70
2023/01/28 02:41:00;;;;;;;0.40;0.40;;;17.70;68.70;;;;;;6164817;23;20004;-70
2023/01/28 02:43:40;;;;;;;0.40;0.40;;;17.60;68.80;;;;;;6194132;23;20004;-70
2023/01/28 02:49:38;;;;;;;0.90;0.50;;;17.60;69.00;;;;;;6194534;23;20650;-70
2023/01/28 02:52:09;;;;;;;0.50;0.40;;;17.50;69.00;;;;;;6192514;23;20001;-70
2023/01/28 02:54:38;;;;;;;1.02;0.55;;;17.50;69.00;;;;;;6216012;23;20004;-70
2023/01/28 02:57:11;;;;;;;0.77;0.40;;;17.40;69.20;;;;;;6216527;23;20005;-70
2023/01/28 02:59:41;;;;;;;0.57;0.47;;;17.40;69.30;;;;;;6216240;23;20000;-70
2023/01/28 03:02:27;;;;;;;0.50;0.50;;;17.40;69.40;;;;;;6214576;23;20080;-70
2023/01/28 03:05:05;;;;;;;0.45;0.45;;;17.40;69.40;;;;;;6190513;23;19997;-70
2023/01/28 03:07:32;;;;;;;0.63;0.40;;;17.40;69.60;;;;;;6191736;23;20421;-70
2023/01/28 03:09:58;;;;;;;0.40;0.40;;;17.30;69.60;;;;;;6189776;23;19997;-70
2023/01/28 03:37:59;;;;;;;0.50;0.30;;;17.00;70.50;;;;;;6214430;23;20011;-70
2023/01/28 03:40:25;;;;;;;1.20;0.40;;;17.00;70.60;;;;;;6214385;23;20343;-70
2023/01/28 03:42:51;;;;;;;0.30;0.30;;;17.00;70.60;;;;;;6214265;23;20001;-70
2023/01/28 03:45:16;;;;;;;0.85;0.32;;;17.00;70.70;;;;;;6215346;23;20051;-70
2023/01/28 03:47:43;;;;;;;0.30;0.30;;;16.90;70.70;;;;;;6189384;23;20005;-70
2023/01/28 03:50:09;;;;;;;0.20;0.20;;;16.90;70.80;;;;;;6215924;23;20001;-70
2023/01/28 03:52:35;;;;;;;0.57;0.43;;;16.90;71.90;;;;;;6215454;23;20287;-70
2023/01/28 03:55:03;;;;;;;0.32;0.32;;;16.90;71.10;;;;;;6213807;23;20053;-70
2023/01/28 03:57:30;;;;;;;0.40;0.40;;;16.90;71.00;;;;;;6213982;23;20093;-70
2023/01/28 03:59:55;;;;;;;0.85;0.40;;;16.80;71.10;;;;;;6215585;23;20001;-70
2023/01/28 04:02:21;;;;;;;0.40;0.40;;;16.80;71.20;;;;;;6215516;23;20054;-70
2023/01/28 04:04:48;;;;;;;0.35;0.30;;;16.80;71.30;;;;;;6215664;23;20001;-70
2023/01/28 04:07:14;;;;;;;0.43;0.40;;;16.80;71.30;;;;;;6214137;23;19997;-70
2023/01/28 04:09:40;;;;;;;0.47;0.32;;;16.80;71.40;;;;;;6215488;23;19996;-70
2023/01/28 04:12:06;;;;;;;1.17;0.30;;;16.70;71.40;;;;;;6188832;23;20005;-70
2023/01/28 04:14:32;;;;;;;0.30;0.30;;;16.70;71.40;;;;;;6215366;23;20323;-71
2023/01/28 04:16:57;;;;;;;0.30;0.30;;;16.70;71.50;;;;;;6214133;23;20020;-71
2023/01/28 04:19:23;;;;;;;1.27;0.63;;;16.70;71.60;;;;;;6215277;23;20366;-71
2023/01/28 04:21:49;;;;;;;0.68;0.30;;;16.70;71.60;;;;;;6214198;23;20055;-71
2023/01/28 04:24:15;;;;;;;0.30;0.30;;;16.70;71.60;;;;;;6213859;23;19996;-70
2023/01/28 04:26:41;;;;;;;0.40;0.40;;;16.60;71.60;;;;;;6215128;23;20099;-71
2023/01/28 04:29:06;;;;;;;0.38;0.30;;;16.60;71.60;;;;;;6213742;23;20433;-71
2023/01/28 04:31:32;;;;;;;0.57;0.40;;;16.60;71.60;;;;;;6189021;23;20028;-71
2023/01/28 04:33:58;;;;;;;0.90;0.50;;;16.60;71.70;;;;;;6213993;23;20005;-71
2023/01/28 04:36:24;;;;;;;0.50;0.35;;;16.50;71.70;;;;;;6215465;23;20001;-70
2023/01/28 04:38:49;;;;;;;0.38;0.30;;;16.50;71.80;;;;;;6215322;23;20004;-71
2023/01/28 04:41:15;;;;;;;0.98;0.55;;;16.50;71.80;;;;;;6213515;23;20004;-70
2023/01/28 04:43:41;;;;;;;0.30;0.30;;;16.50;71.80;;;;;;6213864;23;20036;-70
2023/01/28 04:46:06;;;;;;;9.23;0.50;;;16.50;72.00;;;;;;6215320;23;20004;-70
2023/01/28 04:48:33;;;;;;;3.85;0.40;;;16.50;72.00;;;;;;6213702;23;19997;-70
2023/01/28 04:50:59;;;;;;;0.57;0.30;;;16.40;72.00;;;;;;6213695;23;20000;-70
2023/01/28 04:53:25;;;;;;;0.30;0.30;;;16.40;72.00;;;;;;6213737;23;20321;-71
2023/01/28 04:55:50;;;;;;;0.20;0.20;;;16.40;72.00;;;;;;6213415;23;20008;-70
2023/01/28 04:58:16;;;;;;;0.40;0.30;;;16.40;72.10;;;;;;6215531;23;20001;-70
2023/01/28 05:00:42;;;;;;;1.02;0.43;;;16.40;72.10;;;;;;6213779;23;20099;-70
2023/01/28 05:03:07;;;;;;;0.30;0.30;;;16.40;72.40;;;;;;6213564;23;20039;-70
2023/01/28 05:05:33;;;;;;;0.30;0.30;;;16.30;72.30;;;;;;6215838;23;20449;-70
2023/01/28 05:07:59;;;;;;;0.30;0.30;;;16.30;72.30;;;;;;6215855;23;20310;-70
2023/01/28 05:10:25;;;;;;;0.57;0.35;;;16.30;72.30;;;;;;6215460;23;20330;-70
2023/01/28 05:12:50;;;;;;;0.40;0.40;;;16.30;72.30;;;;;;6215969;23;20016;-70
2023/01/28 05:15:16;;;;;;;0.32;0.30;;;16.30;72.30;;;;;;6215684;23;20009;-70
2023/01/28 05:17:42;;;;;;;0.50;0.40;;;16.20;72.30;;;;;;6190843;23;20032;-70
2023/01/28 05:20:09;;;;;;;0.25;0.20;;;16.20;72.30;;;;;;6215847;23;20119;-70
2023/01/28 05:22:35;;;;;;;0.65;0.25;;;16.20;72.50;;;;;;6217451;23;20005;-70
2023/01/28 05:25:02;;;;;;;2.88;0.40;;;16.20;72.40;;;;;;6216845;23;20468;-70
2023/01/28 05:27:28;;;;;;;0.63;0.30;;;16.20;72.40;;;;;;6215583;23;20048;-70
2023/01/28 05:29:54;;;;;;;0.70;0.40;;;16.10;72.50;;;;;;6215707;23;20484;-70
2023/01/28 05:32:19;;;;;;;1.08;0.40;;;16.10;72.50;;;;;;6217355;23;20068;-70
2023/01/28 05:34:45;;;;;;;0.30;0.30;;;16.10;72.50;;;;;;6217149;23;20035;-70
2023/01/28 05:37:10;;;;;;;0.85;0.30;;;16.10;72.60;;;;;;6216859;23;20004;-70
2023/01/28 05:39:36;;;;;;;0.45;0.30;;;16.10;72.60;;;;;;6215105;23;20005;-70
2023/01/28 05:42:02;;;;;;;0.22;0.20;;;16.10;72.70;;;;;;6216882;23;20028;-70
2023/01/28 05:44:27;;;;;;;0.32;0.20;;;16.10;72.80;;;;;;6215335;23;20334;-70
2023/01/28 05:46:53;;;;;;;0.45;0.28;;;16.10;73.00;;;;;;6216947;23;20071;-70
2023/01/28 05:49:19;;;;;;;0.35;0.30;;;16.10;73.00;;;;;;6190187;23;20513;-70
2023/01/28 05:51:44;;;;;;;0.52;0.32;;;16.00;72.90;;;;;;6216772;23;20414;-70
2023/01/28 05:54:10;;;;;;;0.30;0.30;;;16.00;72.90;;;;;;6190191;23;20001;-70
2023/01/28 05:56:36;;;;;;;1.30;0.47;;;16.00;73.10;;;;;;6216263;23;20001;-70
2023/01/28 05:59:02;;;;;;;0.93;0.32;;;16.00;73.00;;;;;;6215259;23;20008;-70
2023/01/28 06:01:28;;;;;;;1.23;0.20;;;16.00;73.00;;;;;;6215390;23;20009;-70
2023/01/28 06:03:54;;;;;;;0.30;0.30;;;16.00;73.10;;;;;;6215085;23;20007;-70
2023/01/28 06:06:19;;;;;;;0.77;0.30;;;15.90;73.20;;;;;;6215131;23;20067;-70
2023/01/28 06:08:45;;;;;;;0.32;0.20;;;15.90;73.10;;;;;;6214904;23;20001;-70
2023/01/28 06:11:11;;;;;;;0.22;0.20;;;15.90;73.20;;;;;;6215228;23;20083;-70
2023/01/28 06:13:36;;;;;;;0.80;0.40;;;15.90;73.20;;;;;;6215063;23;20028;-70
2023/01/28 06:16:02;;;;;;;0.30;0.30;;;15.90;73.30;;;;;;6214798;23;20024;-70
2023/01/28 06:18:28;;;;;;;0.30;0.30;;;15.90;73.30;;;;;;6214944;23;20009;-70
2023/01/28 06:20:54;;;;;;;0.40;0.38;;;15.90;73.40;;;;;;6190158;23;20005;-70
2023/01/28 06:23:19;;;;;;;0.30;0.30;;;15.80;73.30;;;;;;6216257;23;20001;-70
2023/01/28 06:25:45;;;;;;;0.47;0.38;;;15.90;73.40;;;;;;6214782;23;20062;-70
2023/01/28 06:28:11;;;;;;;0.50;0.30;;;15.80;73.30;;;;;;6190277;23;19997;-70
2023/01/28 06:30:36;;;;;;;0.20;0.20;;;15.80;73.30;;;;;;6190086;23;20011;-70
2023/01/28 06:33:02;;;;;;;0.75;0.40;;;15.80;73.30;;;;;;6190117;23;20032;-70
2023/01/28 06:35:27;;;;;;;0.40;0.30;;;15.80;73.30;;;;;;6216365;23;20008;-70
2023/01/28 06:37:53;;;;;;;0.55;0.30;;;15.80;73.30;;;;;;6214630;23;20007;-70
2023/01/28 06:40:19;;;;;;;0.35;0.35;;;15.70;73.20;;;;;;6189866;23;20028;-69
2023/01/28 06:42:45;;;;;;;0.65;0.35;;;15.80;73.50;;;;;;6189905;23;20457;-70
2023/01/28 06:45:10;;;;;;;0.82;0.30;;;15.70;73.50;;;;;;6215035;23;20031;-70
2023/01/28 06:47:38;;;;;;;0.30;0.10;;;15.80;73.70;;;;;;6215459;23;20003;-70
2023/01/28 06:50:04;;;;;;;0.85;0.40;;;15.70;73.60;;;;;;6214225;23;20056;-70
2023/01/28 06:52:30;;;;;;;0.30;0.30;;;15.70;73.70;;;;;;6188609;23;20451;-70
2023/01/28 06:54:56;;;;;;;0.63;0.28;;;15.70;73.80;;;;;;6214320;23;20028;-70
2023/01/28 06:57:21;;;;;;;0.15;0.10;;;15.70;74.70;;;;;;6189203;23;20329;-70
2023/01/28 06:59:47;;;;;;;0.30;0.30;;;15.70;74.00;;;;;;6215374;23;20063;-70
2023/01/28 07:02:13;;;;;;;0.25;0.22;;;15.70;73.80;;;;;;6215476;23;20051;-70
2023/01/28 07:04:38;;;;;;;0.38;0.28;;;15.70;74.00;;;;;;6213801;23;20001;-70
2023/01/28 07:07:04;;;;;;;0.28;0.28;;;15.60;74.00;;;;;;6213834;23;20369;-70
2023/01/28 07:09:29;;;;;;;0.50;0.40;;;15.60;73.90;;;;;;6215468;23;20003;-70
2023/01/28 07:11:55;;;;;;;0.30;0.30;;;15.60;73.90;;;;;;6215277;23;20421;-70
2023/01/28 07:14:21;;;;;;;0.30;0.30;;;15.60;74.00;;;;;;6213937;23;20075;-70
2023/01/28 07:16:46;;;;;;;1.67;0.30;;;15.60;74.20;;;;;;6215138;23;20079;-70
2023/01/28 07:19:12;;;;;;;0.32;0.20;;;15.60;74.20;;;;;;6215350;23;20036;-70
2023/01/28 07:21:37;;;;;;;0.28;0.28;;;15.60;74.00;;;;;;6214931;23;20032;-70
2023/01/28 07:24:04;;;;;;;0.40;0.30;;;15.60;74.20;;;;;;6213754;23;20001;-71
2023/01/28 07:26:30;;;;;;;1.33;0.30;;;15.60;74.30;;;;;;6214830;23;20012;-70
2023/01/28 07:28:55;;;;;;;0.28;0.28;;;15.60;74.20;;;;;;6213878;23;20054;-70
2023/01/28 07:31:21;;;;;;;1.20;0.22;;;15.60;74.20;;;;;;6215112;23;20414;-70
2023/01/28 07:33:46;;;;;;;0.75;0.47;;;15.60;74.20;;;;;;6213630;23;20449;-69
2023/01/28 07:36:12;;;;;;;0.20;0.20;;;15.50;73.00;;;;;;6213576;23;20011;-70
2023/01/28 07:38:38;;;;;;;0.40;0.40;;;15.50;72.20;;;;;;6213587;23;20075;-70
2023/01/28 07:41:03;;;;;;;0.47;0.20;;;15.50;71.80;;;;;;6214843;23;20039;-70
2023/01/28 07:43:29;;;;;;;0.57;0.30;;;15.50;71.60;;;;;;6215207;23;20004;-70
2023/01/28 07:45:55;;;;;;;0.30;0.20;;;15.50;71.30;;;;;;6213533;23;20000;-71
2023/01/28 07:48:20;;;;;;;0.52;0.30;;;15.40;71.00;;;;;;6213711;23;20000;-70
2023/01/28 07:50:48;;;;;;;0.20;0.20;;;15.50;70.90;;;;;;6213075;23;20337;-70
2023/01/28 07:53:14;;;;;;;0.35;0.30;;;15.40;70.70;;;;;;6214922;23;20373;-70
2023/01/28 07:55:39;;;;;;;0.40;0.30;;;15.40;70.60;;;;;;6215010;23;19997;-70
2023/01/28 07:58:06;;;;;;;1.75;0.30;;;15.40;70.40;;;;;;6213558;23;20052;-70
2023/01/28 08:00:33;;;;;;;1.08;0.30;;;15.40;70.30;;;;;;6188602;23;20448;-70
2023/01/28 08:03:00;;;;;;;1.40;0.35;;;15.40;70.20;;;;;;6213227;23;20115;-70
2023/01/28 08:05:40;;;;;;;0.47;0.40;;;15.40;70.20;;;;;;6188565;23;20026;-70
2023/01/28 08:08:07;;;;;;;2.38;0.52;;;15.40;70.00;;;;;;6213684;23;20000;-70
2023/01/28 08:10:32;;;;;;;1.38;0.60;;;15.40;70.10;;;;;;6213352;23;19997;-72
2023/01/28 08:12:58;;;;;;;10.23;2.17;;;15.30;70.00;;;;;;6163417;23;20054;-70
2023/01/28 08:15:24;;;;;;;15.13;2.95;;;15.40;70.30;;;;;;6214933;23;20087;-70
2023/01/28 08:17:50;;;;;;;18.88;2.88;;;15.40;70.90;;;;;;6213071;23;20071;-70
2023/01/28 08:20:16;;;;;;;21.98;3.90;;;15.40;71.10;;;;;;6212897;23;20326;-70
2023/01/28 08:22:41;;;;;;;18.00;3.13;;;15.40;71.40;;;;;;6211925;23;20001;-70
2023/01/28 08:25:07;;;;;;;16.40;3.17;;;15.40;71.60;;;;;;6213727;23;20008;-70
2023/01/28 08:27:33;;;;;;;12.98;2.85;;;15.30;71.70;;;;;;6188395;23;20015;-70
2023/01/28 08:29:58;;;;;;;17.75;3.10;;;15.30;71.70;;;;;;6214591;23;20448;-70
2023/01/28 08:32:24;;;;;;;12.32;3.22;;;15.30;71.80;;;;;;6213216;23;20005;-70
2023/01/28 08:34:50;;;;;;;18.08;3.05;;;15.40;71.90;;;;;;6212857;23;20004;-70
2023/01/28 08:37:15;;;;;;;12.27;2.85;;;15.30;71.90;;;;;;6214542;23;20005;-70
2023/01/28 08:39:41;;;;;;;16.65;3.17;;;15.30;72.00;;;;;;6214440;23;20008;-70
2023/01/28 08:42:07;;;;;;;10.02;3.00;;;15.40;72.10;;;;;;6213187;23;20008;-70
2023/01/28 08:44:33;;;;;;;10.27;2.78;;;15.30;72.10;;;;;;6188277;23;20032;-70
2023/01/28 08:46:58;;;;;;;11.05;2.47;;;15.30;72.10;;;;;;6214355;23;20004;-70
2023/01/28 08:49:24;;;;;;;9.55;1.88;;;15.30;72.10;;;;;;6214987;23;20433;-70
2023/01/28 08:51:50;;;;;;;12.50;2.90;;;15.30;72.00;;;;;;6214211;23;20502;-70
2023/01/28 08:54:15;;;;;;;9.07;2.33;;;15.30;72.00;;;;;;6214818;23;20498;-70
2023/01/28 08:56:43;;;;;;;10.55;2.50;;;15.30;71.90;;;;;;6214417;23;20075;-70
2023/01/28 08:59:10;;;;;;;8.90;2.50;;;15.30;71.80;;;;;;6214643;23;20008;-70
2023/01/28 09:01:35;;;;;;;7.63;2.22;;;15.30;71.80;;;;;;6212854;23;20005;-70
2023/01/28 09:04:01;;;;;;;7.85;1.88;;;15.30;71.70;;;;;;6214389;23;20314;-70
2023/01/28 09:06:27;;;;;;;8.57;1.90;;;15.30;71.60;;;;;;6188009;23;20000;-70
2023/01/28 09:08:56;;;;;;;7.50;2.17;;;15.30;71.50;;;;;;6213055;23;19997;-70
2023/01/28 09:11:21;;;;;;;7.15;2.10;;;15.30;71.50;;;;;;6214327;23;20029;-70
2023/01/28 09:13:47;;;;;;;8.38;1.77;;;15.20;71.40;;;;;;6212908;23;20028;-70
2023/01/28 09:16:13;;;;;;;6.18;1.90;;;15.20;71.20;;;;;;6212792;23;20059;-70
2023/01/28 09:18:38;;;;;;;7.32;1.90;;;15.30;71.20;;;;;;6214444;23;20047;-70
2023/01/28 09:21:06;;;;;;;7.45;2.58;;;15.20;71.20;;;;;;6212790;23;20058;-70
2023/01/28 09:23:34;;;;;;;5.20;1.67;;;15.20;71.10;;;;;;6188262;23;20410;-70
2023/01/28 09:26:00;;;;;;;5.03;2.10;;;15.20;71.00;;;;;;6214146;23;20087;-70
2023/01/28 09:28:26;;;;;;;7.90;2.60;;;15.20;71.00;;;;;;6214401;23;20000;-70
2023/01/28 09:30:51;;;;;;;4.45;1.90;;;15.20;71.00;;;;;;6212762;23;20455;-70
2023/01/28 09:33:17;;;;;;;6.05;2.08;;;15.20;71.00;;;;;;6214291;23;20027;-70
2023/01/28 09:35:42;;;;;;;7.13;1.60;;;15.20;70.90;;;;;;6212909;23;20120;-70
2023/01/28 09:38:08;;;;;;;5.22;1.63;;;15.20;70.90;;;;;;6214341;23;19997;-70
2023/01/28 09:40:40;;;;;;;7.05;2.00;;;15.20;70.90;;;;;;6214194;23;20433;-70
2023/01/28 09:43:44;;;;;;;5.07;2.08;;;15.20;70.90;;;;;;6163032;23;20396;-70
2023/01/28 09:46:11;;;;;;;3.00;1.40;;;15.10;70.80;;;;;;6193274;23;20071;-70
2023/01/28 09:49:04;;;;;;;3.60;1.40;;;15.10;70.80;;;;;;6188181;23;20520;-70
2023/01/28 09:51:44;;;;;;;5.10;1.60;;;15.20;70.80;;;;;;6210692;23;20008;-70
2023/01/28 09:54:17;;;;;;;6.40;2.05;;;15.10;70.80;;;;;;6190337;23;20000;-70
2023/01/28 09:56:45;;;;;;;3.42;1.30;;;15.10;70.70;;;;;;6214695;23;20005;-70
2023/01/28 09:59:18;;;;;;;2.35;1.30;;;15.10;70.70;;;;;;6190176;23;20119;-70
2023/01/28 10:01:43;;;;;;;5.72;1.52;;;15.20;70.80;;;;;;6215893;23;20125;-70
2023/01/28 10:04:30;;;;;;;6.00;1.13;;;15.10;70.80;;;;;;6214525;23;20376;-70
2023/01/28 10:07:09;;;;;;;6.88;1.38;;;15.10;70.70;;;;;;6215963;23;19997;-70
2023/01/28 10:09:40;;;;;;;3.95;1.52;;;15.10;70.70;;;;;;6214913;23;20425;-70
2023/01/28 10:12:38;;;;;;;2.17;1.13;;;15.10;70.70;;;;;;6214596;23;20000;-70
2023/01/28 10:15:31;;;;;;;5.82;1.38;;;15.10;70.80;;;;;;6214576;23;20008;-70
2023/01/28 10:18:08;;;;;;;4.18;1.23;;;15.10;70.80;;;;;;6214547;23;20076;-70
2023/01/28 10:20:53;;;;;;;4.50;1.45;;;15.10;70.80;;;;;;6214444;23;20016;-70
2023/01/28 10:23:26;;;;;;;2.83;1.35;;;15.10;70.80;;;;;;6214492;23;20008;-70
2023/01/28 10:25:51;;;;;;;7.28;1.65;;;15.10;70.80;;;;;;6214223;23;20012;-70
2023/01/28 10:28:26;;;;;;;4.97;1.30;;;15.10;70.80;;;;;;6214336;23;20008;-70
2023/01/28 10:30:51;;;;;;;1.85;1.40;;;15.10;70.80;;;;;;6190001;23;20433;-70
2023/01/28 10:33:22;;;;;;;5.88;1.25;;;15.10;70.80;;;;;;6214707;23;20065;-70
2023/01/28 10:35:48;;;;;;;2.08;1.10;;;15.10;70.80;;;;;;6189221;23;20348;-70
2023/01/28 10:38:15;;;;;;;4.30;1.30;;;15.10;70.80;;;;;;6189345;23;20012;-70
2023/01/28 10:40:41;;;;;;;2.50;1.13;;;15.10;70.80;;;;;;6189395;23;20004;-70
2023/01/28 10:43:10;;;;;;;2.08;1.00;;;15.10;70.80;;;;;;6188881;23;20076;-70
2023/01/28 10:45:56;;;;;;;2.28;1.30;;;15.00;70.70;;;;;;6190132;23;20003;-70
2023/01/28 10:48:22;;;;;;;3.58;1.27;;;15.00;70.70;;;;;;6214285;23;20005;-70
2023/01/28 10:51:03;;;;;;;2.22;1.10;;;15.10;70.80;;;;;;6215608;23;20449;-70
2023/01/28 10:53:47;;;;;;;3.17;0.90;;;15.10;70.80;;;;;;6191943;23;20008;-70
2023/01/28 10:56:17;;;;;;;3.65;1.23;;;15.00;70.70;;;;;;6214193;23;20004;-70
2023/01/28 10:59:07;;;;;;;2.03;1.00;;;15.00;70.70;;;;;;6189443;23;20000;-70
2023/01/28 11:01:53;;;;;;;4.05;1.08;;;15.00;70.70;;;;;;6193036;23;20015;-70
2023/01/28 11:04:23;;;;;;;1.35;0.80;;;15.00;70.70;;;;;;6214121;23;20392;-70
2023/01/28 11:07:17;;;;;;;4.72;1.50;;;15.00;70.80;;;;;;6214193;23;19999;-70
2023/01/28 11:09:50;;;;;;;2.00;0.90;;;15.00;70.80;;;;;;6213988;23;20459;-70
2023/01/28 11:12:24;;;;;;;3.25;0.93;;;15.00;70.70;;;;;;6213882;23;20472;-70
2023/01/28 11:14:57;;;;;;;2.78;1.02;;;15.00;70.70;;;;;;6190195;23;20007;-70
2023/01/28 11:17:24;;;;;;;2.13;0.95;;;15.00;70.70;;;;;;6213904;23;20518;-70
2023/01/28 11:19:52;;;;;;;1.38;1.00;;;15.00;70.80;;;;;;6189055;23;20008;-70
2023/01/28 11:22:37;;;;;;;1.80;0.85;;;15.00;70.70;;;;;;6188896;23;20009;-70
2023/01/28 11:25:33;;;;;;;2.53;0.98;;;15.00;70.70;;;;;;6213472;23;20417;-70
2023/01/28 11:28:00;;;;;;;2.20;0.80;;;15.00;70.70;;;;;;6188384;23;20519;-70
2023/01/28 11:30:39;;;;;;;1.05;0.70;;;15.00;70.90;;;;;;6213764;23;20024;-70
2023/01/28 11:33:18;;;;;;;2.10;0.77;;;15.00;70.70;;;;;;6213795;23;20342;-70
2023/01/28 11:36:04;;;;;;;1.63;0.82;;;15.00;70.70;;;;;;6189063;23;20384;-70
2023/01/28 11:38:32;;;;;;;1.60;0.73;;;14.90;70.70;;;;;;6214140;23;20021;-70
2023/01/28 11:41:00;;;;;;;1.92;0.70;;;15.00;70.70;;;;;;6213279;23;20000;-70
2023/01/28 11:43:29;;;;;;;2.00;0.88;;;15.00;70.70;;;;;;6189162;23;20028;-70
2023/01/28 11:46:10;;;;;;;1.38;0.70;;;15.00;70.70;;;;;;6213488;23;20337;-70
2023/01/28 11:49:03;;;;;;;2.65;0.80;;;14.90;70.60;;;;;;6213704;23;20427;-70
2023/01/28 11:52:02;;;;;;;2.17;0.73;;;15.00;70.70;;;;;;6215220;23;20058;-70
2023/01/28 11:54:52;;;;;;;1.13;1.00;;;15.00;70.60;;;;;;6103435;23;20010;-70
2023/01/28 11:57:30;;;;;;;0.82;0.60;;;14.90;70.60;;;;;;6122907;23;20046;-70
2023/01/28 12:00:16;;;;;;;1.05;0.75;;;14.90;70.60;;;;;;6123094;23;20010;-70
2023/01/28 12:02:49;;;;;;;1.42;0.73;;;14.90;70.60;;;;;;6122973;23;20061;-70
2023/01/28 12:05:26;;;;;;;1.55;0.68;;;14.90;70.60;;;;;;6122977;23;20085;-70
2023/01/28 12:08:22;;;;;;;0.55;0.40;;;14.90;70.70;;;;;;6123158;23;20006;-70
2023/01/28 12:11:13;;;;;;;1.17;0.60;;;14.90;70.60;;;;;;6122900;23;20026;-70
2023/01/28 12:14:02;;;;;;;2.30;0.52;;;14.90;70.60;;;;;;6123072;23;20010;-70
2023/01/28 12:16:46;;;;;;;1.77;0.57;;;14.90;70.60;;;;;;6122338;23;20447;-70
2023/01/28 12:19:30;;;;;;;0.88;0.63;;;14.90;70.60;;;;;;6120423;23;20379;-70
2023/01/28 12:22:37;;;;;;;1.48;0.68;;;14.90;70.50;;;;;;6122035;23;20006;-70
2023/01/28 12:25:06;;;;;;;1.88;0.65;;;14.90;70.50;;;;;;6107093;23;20018;-70
2023/01/28 12:27:40;;;;;;;1.25;0.77;;;14.90;70.60;;;;;;6123056;23;20010;-70
2023/01/28 12:30:36;;;;;;;2.03;0.70;;;14.90;70.50;;;;;;6122652;23;20073;-70
2023/01/28 12:33:23;;;;;;;2.00;0.80;;;14.90;70.50;;;;;;6214754;23;20000;-70
2023/01/28 12:36:13;;;;;;;1.23;0.60;;;14.90;70.50;;;;;;6213211;23;20008;-70
2023/01/28 12:38:49;;;;;;;0.70;0.70;;;14.90;70.40;;;;;;6214656;23;20040;-70
2023/01/28 12:41:17;;;;;;;2.20;0.75;;;14.90;70.40;;;;;;6212723;23;20001;-70
2023/01/28 12:43:51;;;;;;;2.42;0.85;;;14.90;70.40;;;;;;6188532;23;20000;-70
2023/01/28 12:46:18;;;;;;;1.45;0.50;;;14.80;70.30;;;;;;6213233;23;20340;-70
2023/01/28 12:48:49;;;;;;;1.23;0.65;;;14.90;70.40;;;;;;6214795;23;20067;-70
2023/01/28 12:51:18;;;;;;;0.80;0.40;;;14.90;70.30;;;;;;6213077;23;19997;-70
2023/01/28 12:53:56;;;;;;;1.38;0.60;;;14.90;70.40;;;;;;6188149;23;20003;-70
2023/01/28 12:56:27;;;;;;;1.38;0.63;;;14.80;70.30;;;;;;6188659;23;19997;-70
2023/01/28 12:59:12;;;;;;;0.52;0.50;;;14.90;70.40;;;;;;6213259;23;20345;-70
2023/01/28 13:01:46;;;;;;;0.90;0.52;;;14.90;70.30;;;;;;6213130;23;20005;-70
2023/01/28 13:04:20;;;;;;;0.50;0.40;;;14.80;70.30;;;;;;6214414;23;20028;-70
2023/01/28 13:06:48;;;;;;;0.60;0.60;;;14.80;70.20;;;;;;6214607;23;20001;-70
2023/01/28 13:09:19;;;;;;;1.75;0.75;;;14.80;70.30;;;;;;6187968;23;19997;-70
2023/01/28 13:11:45;;;;;;;1.08;0.60;;;14.80;70.20;;;;;;6214402;23;20389;-70
2023/01/28 13:14:11;;;;;;;1.05;0.50;;;14.80;70.20;;;;;;6213046;23;20001;-70
2023/01/28 13:16:36;;;;;;;2.20;0.60;;;14.80;70.20;;;;;;6212876;23;20000;-70
2023/01/28 13:19:17;;;;;;;0.50;0.50;;;14.80;70.20;;;;;;6213022;23;20005;-70
2023/01/28 13:21:43;;;;;;;1.27;0.57;;;14.80;70.20;;;;;;6214434;23;20063;-70
2023/01/28 13:24:10;;;;;;;1.13;0.55;;;14.80;70.20;;;;;;6214176;23;20008;-70
2023/01/28 13:26:49;;;;;;;0.80;0.50;;;14.80;70.20;;;;;;6216237;23;20331;-70
2023/01/28 13:29:17;;;;;;;0.88;0.50;;;14.80;70.20;;;;;;6189710;23;20032;-70